Time;durP1;ratioP1;P1;durP2;ratioP2;P2;SDS_P1;SDS_P2;PMS_P1;PMS_P2;Temp;Humidity;BMP_temperature;BMP_pressure;BME280_temperature;BME280_humidity;BME280_pressure;Samples;Min_cycle;Max_cycle;Signal;HPM_P1;HPM_P2
2023/10/30 00:02:20;;;;;;;1.88;1.35;;;25.40;49.00;;;;;;5088887;28;20110;-67
2023/10/30 00:04:46;;;;;;;2.92;1.65;;;25.30;49.10;;;;;;5093131;28;20104;-68
2023/10/30 00:07:12;;;;;;;2.78;1.35;;;25.40;49.10;;;;;;5085434;28;20047;-68
2023/10/30 00:09:38;;;;;;;2.95;1.30;;;25.60;49.20;;;;;;5079450;28;20024;-68
2023/10/30 00:12:04;;;;;;;2.42;1.40;;;25.50;49.20;;;;;;5089913;28;20070;-68
2023/10/30 00:14:31;;;;;;;2.30;1.50;;;25.50;49.20;;;;;;5085350;28;20789;-68
2023/10/30 00:16:57;;;;;;;3.90;1.65;;;25.60;49.30;;;;;;5086542;28;20037;-68
2023/10/30 00:19:23;;;;;;;2.47;1.40;;;25.50;49.30;;;;;;5073025;28;20036;-68
2023/10/30 00:21:49;;;;;;;2.67;1.40;;;25.50;49.30;;;;;;5072507;28;20082;-68
2023/10/30 00:24:15;;;;;;;1.33;1.20;;;25.50;49.40;;;;;;5089986;28;20040;-67
2023/10/30 00:26:42;;;;;;;5.07;1.63;;;25.50;49.40;;;;;;5083684;28;20036;-66
2023/10/30 00:29:08;;;;;;;3.05;1.60;;;25.60;49.40;;;;;;5088425;28;20484;-68
2023/10/30 00:31:36;;;;;;;4.90;1.67;;;25.50;49.50;;;;;;5092059;28;20177;-66
2023/10/30 00:34:03;;;;;;;2.40;1.83;;;25.60;49.50;;;;;;5090848;28;20081;-68
2023/10/30 00:36:29;;;;;;;2.15;1.17;;;25.60;49.50;;;;;;5085566;28;20024;-66
2023/10/30 00:38:55;;;;;;;4.63;1.58;;;25.60;49.50;;;;;;5076266;28;20040;-67
2023/10/30 00:41:21;;;;;;;1.30;1.20;;;25.60;49.50;;;;;;5069263;28;20037;-68
2023/10/30 00:43:49;;;;;;;4.03;1.55;;;25.70;49.50;;;;;;5073152;28;20029;-67
2023/10/30 00:46:15;;;;;;;5.72;1.63;;;25.60;49.60;;;;;;5086360;28;20052;-67
2023/10/30 00:48:41;;;;;;;1.50;1.35;;;25.60;49.60;;;;;;5072828;28;20687;-67
2023/10/30 00:51:07;;;;;;;2.13;1.33;;;25.60;49.70;;;;;;5109187;28;20038;-67
2023/10/30 00:53:33;;;;;;;4.22;1.40;;;25.50;49.70;;;;;;5091407;27;20567;-67
2023/10/30 00:55:59;;;;;;;2.10;1.35;;;25.50;49.70;;;;;;5072305;28;20071;-68
2023/10/30 00:58:25;;;;;;;2.60;1.48;;;25.50;49.70;;;;;;5089908;28;20042;-67
2023/10/30 01:00:51;;;;;;;4.53;1.63;;;25.50;49.80;;;;;;5104736;28;20495;-68
2023/10/30 01:03:23;;;;;;;2.72;1.75;;;25.40;49.90;;;;;;5090738;28;20040;-67
2023/10/30 01:05:59;;;;;;;4.57;1.33;;;25.50;49.90;;;;;;5084705;28;20036;-68
2023/10/30 01:08:26;;;;;;;2.53;1.45;;;25.60;49.80;;;;;;5073014;28;20517;-67
2023/10/30 01:10:53;;;;;;;2.90;1.70;;;25.60;49.90;;;;;;5088459;28;20344;-68
2023/10/30 01:13:19;;;;;;;6.90;1.88;;;25.40;49.90;;;;;;5089859;28;20048;-66
2023/10/30 01:15:45;;;;;;;4.00;1.40;;;25.50;49.90;;;;;;5091553;28;20131;-68
2023/10/30 01:18:11;;;;;;;1.60;1.15;;;25.60;49.90;;;;;;5089720;28;20475;-67
2023/10/30 01:20:40;;;;;;;4.25;1.75;;;25.50;49.90;;;;;;5089993;28;20044;-66
2023/10/30 01:23:06;;;;;;;1.67;1.50;;;25.60;49.90;;;;;;5078305;28;20063;-68
2023/10/30 01:25:32;;;;;;;3.95;1.25;;;25.60;49.90;;;;;;5087005;28;20035;-66
2023/10/30 01:27:58;;;;;;;2.85;1.50;;;25.50;49.90;;;;;;5086323;28;20127;-68
2023/10/30 01:30:24;;;;;;;3.17;1.40;;;25.60;49.90;;;;;;5071943;28;20104;-68
2023/10/30 01:32:50;;;;;;;4.57;1.63;;;25.60;49.90;;;;;;5091472;28;20048;-66
2023/10/30 01:35:16;;;;;;;1.63;1.40;;;25.50;50.00;;;;;;5090014;28;20035;-68
2023/10/30 01:37:43;;;;;;;3.15;1.60;;;25.50;50.00;;;;;;5077936;28;20086;-68
2023/10/30 01:40:10;;;;;;;2.78;1.60;;;25.40;50.00;;;;;;5103434;28;20122;-65
2023/10/30 01:42:36;;;;;;;3.05;1.50;;;25.50;50.00;;;;;;5086088;28;20047;-67
2023/10/30 01:45:02;;;;;;;1.73;1.45;;;25.40;50.20;;;;;;5086755;28;20063;-67
2023/10/30 01:47:29;;;;;;;4.07;1.70;;;25.50;50.20;;;;;;5070612;28;20032;-66
2023/10/30 01:49:57;;;;;;;2.78;1.50;;;25.40;50.20;;;;;;5076709;28;20539;-67
2023/10/30 01:52:24;;;;;;;4.35;1.67;;;25.40;50.30;;;;;;5089398;28;20559;-67
2023/10/30 01:54:51;;;;;;;3.28;1.80;;;25.30;50.30;;;;;;5076326;28;20034;-65
2023/10/30 01:57:20;;;;;;;8.80;2.00;;;25.40;50.30;;;;;;5089876;28;20077;-68
2023/10/30 01:59:46;;;;;;;3.95;1.80;;;25.50;50.30;;;;;;5080007;28;20037;-67
2023/10/30 02:02:12;;;;;;;3.13;1.73;;;25.50;50.30;;;;;;5034920;28;20049;-69
2023/10/30 02:04:39;;;;;;;2.20;1.70;;;25.40;50.30;;;;;;5086322;28;20079;-68
2023/10/30 02:07:05;;;;;;;4.25;1.83;;;25.50;50.30;;;;;;5086273;28;20067;-67
2023/10/30 02:09:32;;;;;;;5.40;2.30;;;25.50;50.30;;;;;;5072579;28;20060;-67
2023/10/30 02:11:59;;;;;;;5.03;2.17;;;25.50;50.30;;;;;;5069651;28;20036;-65
2023/10/30 02:14:25;;;;;;;6.20;3.13;;;25.40;50.30;;;;;;5071517;28;20061;-68
2023/10/30 02:16:51;;;;;;;7.35;2.45;;;25.50;50.30;;;;;;5070564;28;20500;-67
2023/10/30 02:19:25;;;;;;;5.30;1.77;;;25.40;50.30;;;;;;5085467;28;20353;-68
2023/10/30 02:21:52;;;;;;;4.22;1.98;;;25.30;50.30;;;;;;5070563;28;20461;-65
2023/10/30 02:24:19;;;;;;;5.65;2.17;;;25.30;50.40;;;;;;5090848;28;20380;-66
2023/10/30 02:26:49;;;;;;;4.32;1.80;;;25.40;50.40;;;;;;5088656;28;20476;-65
2023/10/30 02:29:16;;;;;;;2.63;1.92;;;25.30;50.20;;;;;;5087833;28;20373;-66
2023/10/30 02:31:42;;;;;;;4.78;2.25;;;25.30;50.30;;;;;;5085617;28;20102;-68
2023/10/30 02:34:08;;;;;;;7.78;3.08;;;25.30;50.40;;;;;;5085047;28;20040;-66
2023/10/30 02:36:34;;;;;;;3.20;2.33;;;25.30;50.50;;;;;;5070176;28;20456;-67
2023/10/30 02:39:03;;;;;;;3.55;2.50;;;25.30;50.50;;;;;;5089808;28;20066;-68
2023/10/30 02:41:31;;;;;;;4.05;2.30;;;25.20;50.50;;;;;;5075121;28;20106;-68
2023/10/30 02:43:58;;;;;;;3.92;2.03;;;25.30;50.50;;;;;;5071691;28;20111;-68
2023/10/30 02:46:25;;;;;;;4.47;2.60;;;25.30;50.50;;;;;;5095438;28;20202;-69
2023/10/30 02:48:51;;;;;;;3.58;2.10;;;25.40;50.50;;;;;;5108978;28;20065;-67
2023/10/30 02:51:18;;;;;;;3.92;2.10;;;25.30;50.60;;;;;;5074854;28;20522;-68
2023/10/30 02:53:44;;;;;;;3.83;2.05;;;25.30;50.60;;;;;;5074722;28;20029;-68
2023/10/30 02:56:10;;;;;;;3.25;2.30;;;25.30;50.60;;;;;;5074082;28;20070;-67
2023/10/30 02:58:36;;;;;;;4.18;2.40;;;25.30;50.60;;;;;;5089497;28;20481;-68
2023/10/30 03:01:03;;;;;;;2.83;1.77;;;25.30;50.50;;;;;;5091577;28;20031;-67
2023/10/30 03:03:29;;;;;;;4.82;2.38;;;25.40;50.50;;;;;;5091800;28;20036;-66
2023/10/30 03:05:55;;;;;;;6.03;1.98;;;25.40;50.50;;;;;;5094062;28;20480;-68
2023/10/30 03:08:21;;;;;;;3.80;2.15;;;25.30;50.60;;;;;;5091779;28;20490;-67
2023/10/30 03:10:48;;;;;;;7.53;2.22;;;25.30;50.50;;;;;;5089780;28;20043;-68
2023/10/30 03:13:14;;;;;;;7.65;2.33;;;25.30;50.50;;;;;;5091815;28;20105;-67
2023/10/30 03:15:46;;;;;;;3.13;2.35;;;25.30;50.60;;;;;;5093989;28;20032;-68
2023/10/30 03:18:13;;;;;;;5.47;2.20;;;25.30;50.60;;;;;;5090978;28;20036;-66
2023/10/30 03:20:39;;;;;;;3.60;2.30;;;25.30;50.60;;;;;;5079024;28;20291;-66
2023/10/30 03:23:05;;;;;;;4.25;2.05;;;25.20;50.60;;;;;;5092243;28;20038;-67
2023/10/30 03:25:31;;;;;;;3.15;1.90;;;25.10;50.60;;;;;;5092577;28;20032;-65
2023/10/30 03:27:57;;;;;;;7.57;2.22;;;25.20;50.70;;;;;;5092019;28;20027;-68
2023/10/30 03:30:23;;;;;;;5.03;2.10;;;25.20;50.70;;;;;;5088287;28;20115;-68
2023/10/30 03:32:49;;;;;;;2.30;1.92;;;25.20;50.70;;;;;;5072188;28;20290;-66
2023/10/30 03:35:15;;;;;;;2.75;1.98;;;25.10;50.80;;;;;;5080097;28;20047;-67
2023/10/30 03:37:41;;;;;;;5.25;1.95;;;25.20;50.80;;;;;;5085106;28;20060;-66
2023/10/30 03:40:11;;;;;;;6.18;2.40;;;25.20;50.80;;;;;;5091370;28;20087;-68
2023/10/30 03:42:37;;;;;;;2.92;2.20;;;25.20;50.70;;;;;;5091478;28;20028;-69
2023/10/30 03:45:03;;;;;;;3.65;2.05;;;25.20;50.80;;;;;;5093577;28;20111;-67
2023/10/30 03:47:29;;;;;;;3.50;2.28;;;25.10;50.70;;;;;;5075713;28;20131;-65
2023/10/30 03:49:55;;;;;;;6.00;2.50;;;25.20;50.70;;;;;;5087098;28;20111;-68
2023/10/30 03:52:21;;;;;;;10.35;2.03;;;25.30;50.80;;;;;;5091039;28;20108;-67
2023/10/30 03:54:48;;;;;;;3.47;2.33;;;25.10;50.70;;;;;;5093038;28;20039;-68
2023/10/30 03:57:14;;;;;;;7.95;2.28;;;25.10;50.70;;;;;;5092429;28;20395;-67
2023/10/30 03:59:40;;;;;;;5.38;2.08;;;25.20;50.60;;;;;;5075186;28;20559;-67
2023/10/30 04:02:06;;;;;;;4.50;2.38;;;25.20;50.70;;;;;;5085302;28;20142;-68
2023/10/30 04:04:34;;;;;;;3.85;1.88;;;25.10;50.60;;;;;;5092987;28;20036;-68
2023/10/30 04:07:02;;;;;;;2.80;2.05;;;25.20;50.70;;;;;;5105403;27;20122;-68
2023/10/30 04:09:29;;;;;;;12.77;2.45;;;25.00;50.70;;;;;;5089674;28;20097;-67
2023/10/30 04:11:55;;;;;;;8.13;2.60;;;25.20;50.60;;;;;;5086244;28;20032;-66
2023/10/30 04:14:21;;;;;;;4.00;2.22;;;25.20;50.60;;;;;;5090776;28;20132;-68
2023/10/30 04:16:47;;;;;;;5.60;2.63;;;25.10;50.60;;;;;;5106966;28;20036;-67
2023/10/30 04:19:13;;;;;;;8.95;2.88;;;25.10;50.70;;;;;;5077320;28;20055;-67
2023/10/30 04:21:39;;;;;;;3.72;2.30;;;25.00;50.80;;;;;;5084454;28;20111;-68
2023/10/30 04:24:05;;;;;;;3.78;2.30;;;25.10;50.80;;;;;;5091810;28;20372;-65
2023/10/30 04:26:31;;;;;;;7.25;2.13;;;24.90;50.80;;;;;;5082740;28;20042;-68
2023/10/30 04:28:57;;;;;;;7.05;1.88;;;25.10;50.80;;;;;;5073105;28;20044;-68
2023/10/30 04:31:23;;;;;;;4.18;1.95;;;25.10;50.80;;;;;;5072787;28;20063;-68
2023/10/30 04:33:50;;;;;;;2.20;1.83;;;25.10;50.80;;;;;;5071852;28;20099;-68
2023/10/30 04:36:16;;;;;;;4.97;2.05;;;25.00;50.80;;;;;;5072959;28;20364;-68
2023/10/30 04:38:41;;;;;;;6.13;2.38;;;25.10;50.80;;;;;;5096287;28;20112;-67
2023/10/30 04:41:08;;;;;;;7.50;1.90;;;25.20;50.70;;;;;;5086221;28;20511;-66
2023/10/30 04:43:34;;;;;;;4.85;1.88;;;25.10;50.70;;;;;;5086540;28;20059;-68
2023/10/30 04:46:00;;;;;;;2.88;2.17;;;25.20;50.70;;;;;;5089244;28;20040;-68
2023/10/30 04:48:29;;;;;;;3.78;2.25;;;25.20;50.70;;;;;;5091302;28;20036;-68
2023/10/30 04:50:55;;;;;;;3.28;2.08;;;25.00;50.70;;;;;;5080609;28;20075;-68
2023/10/30 04:53:21;;;;;;;4.45;2.53;;;25.20;50.70;;;;;;5071994;28;20056;-66
2023/10/30 04:55:50;;;;;;;2.67;2.10;;;25.10;50.70;;;;;;5071802;28;20043;-67
2023/10/30 04:58:17;;;;;;;4.80;2.38;;;25.10;50.70;;;;;;5074970;28;20460;-66
2023/10/30 05:00:43;;;;;;;6.88;2.05;;;25.10;50.80;;;;;;5077305;28;20028;-68
2023/10/30 05:03:09;;;;;;;4.35;2.20;;;25.00;50.80;;;;;;5102767;28;20110;-68
2023/10/30 05:05:36;;;;;;;4.57;2.90;;;25.10;50.80;;;;;;5071684;28;20459;-67
2023/10/30 05:08:02;;;;;;;6.38;2.45;;;25.00;50.90;;;;;;5073450;28;20127;-68
2023/10/30 05:10:28;;;;;;;4.00;2.00;;;24.90;50.90;;;;;;5087036;28;20110;-67
2023/10/30 05:12:54;;;;;;;5.57;2.22;;;25.00;50.90;;;;;;5085451;28;20716;-66
2023/10/30 05:15:23;;;;;;;6.70;2.00;;;25.00;51.00;;;;;;5080660;28;20036;-68
2023/10/30 05:17:49;;;;;;;6.63;2.40;;;24.90;51.00;;;;;;5086584;28;20177;-66
2023/10/30 05:20:15;;;;;;;7.78;2.22;;;25.00;51.00;;;;;;5069176;28;20083;-68
2023/10/30 05:22:44;;;;;;;3.90;2.00;;;25.00;51.00;;;;;;5086530;28;20115;-68
2023/10/30 05:25:10;;;;;;;3.47;1.98;;;25.00;51.00;;;;;;5091609;28;20028;-67
2023/10/30 05:27:36;;;;;;;1.85;1.50;;;25.00;51.00;;;;;;5085549;28;20043;-68
2023/10/30 05:30:03;;;;;;;4.22;1.65;;;25.00;51.00;;;;;;5079846;28;20020;-66
2023/10/30 05:32:31;;;;;;;6.78;1.50;;;25.00;50.90;;;;;;5084689;28;20499;-65
2023/10/30 05:34:57;;;;;;;13.38;2.05;;;25.10;51.00;;;;;;5075831;28;20060;-67
2023/10/30 05:37:23;;;;;;;2.33;1.48;;;25.00;51.00;;;;;;5082952;28;20064;-67
2023/10/30 05:39:50;;;;;;;2.33;1.50;;;25.00;50.90;;;;;;5070846;28;20044;-67
2023/10/30 05:42:16;;;;;;;5.35;2.75;;;25.00;50.90;;;;;;5076709;28;20074;-68
2023/10/30 05:44:42;;;;;;;4.15;2.45;;;25.10;50.90;;;;;;5070938;28;20043;-69
2023/10/30 05:47:08;;;;;;;3.50;2.35;;;25.00;50.90;;;;;;5083989;28;20078;-67
2023/10/30 05:49:34;;;;;;;0.70;0.70;;;24.90;51.20;;;;;;5074476;28;20148;-67
2023/10/30 05:52:00;;;;;;;1.38;0.98;;;25.00;47.80;;;;;;5084669;28;20807;-69
2023/10/30 05:54:26;;;;;;;4.93;1.95;;;25.10;50.50;;;;;;5075879;28;20028;-67
2023/10/30 05:56:52;;;;;;;2.28;1.10;;;25.20;48.30;;;;;;5071716;28;20036;-66
2023/10/30 05:59:18;;;;;;;1.75;1.02;;;25.20;48.80;;;;;;5071806;28;20037;-67
2023/10/30 06:01:44;;;;;;;2.25;1.40;;;25.30;51.00;;;;;;5070809;28;20041;-68
2023/10/30 06:04:10;;;;;;;2.55;1.30;;;25.20;48.30;;;;;;5073530;28;20056;-68
2023/10/30 06:06:36;;;;;;;2.83;1.60;;;25.30;50.50;;;;;;5088315;28;20040;-69
2023/10/30 06:09:03;;;;;;;2.92;2.70;;;25.30;52.10;;;;;;5088570;28;20028;-67
2023/10/30 06:11:28;;;;;;;4.68;3.75;;;25.30;50.90;;;;;;5080904;28;20548;-68
2023/10/30 06:13:54;;;;;;;4.97;3.08;;;25.40;50.60;;;;;;5081468;28;20048;-67
2023/10/30 06:16:21;;;;;;;12.20;5.72;;;25.40;50.30;;;;;;5090427;28;20040;-68
2023/10/30 06:18:47;;;;;;;8.98;3.45;;;25.40;48.50;;;;;;5084832;28;20035;-66
2023/10/30 06:21:20;;;;;;;8.68;4.18;;;25.40;48.40;;;;;;5080174;28;20403;-69
2023/10/30 06:23:47;;;;;;;8.02;3.92;;;25.40;50.50;;;;;;5083176;28;20024;-68
2023/10/30 06:26:14;;;;;;;5.50;3.10;;;25.40;47.40;;;;;;5074321;28;20064;-66
2023/10/30 06:28:41;;;;;;;8.00;3.60;;;25.50;50.90;;;;;;5073843;28;20033;-68
2023/10/30 06:31:18;;;;;;;9.15;3.70;;;25.60;51.60;;;;;;5082464;28;20418;-69
2023/10/30 06:33:45;;;;;;;8.40;3.55;;;25.60;51.70;;;;;;5074738;28;20487;-66
2023/10/30 06:36:12;;;;;;;10.35;4.22;;;25.50;51.70;;;;;;5095355;28;20082;-66
2023/10/30 06:38:38;;;;;;;7.55;3.45;;;25.50;51.70;;;;;;5078511;28;20121;-69
2023/10/30 06:41:04;;;;;;;5.38;3.75;;;25.50;52.10;;;;;;5088745;28;20427;-68
2023/10/30 06:43:34;;;;;;;9.88;3.47;;;25.50;52.20;;;;;;5084433;28;20047;-67
2023/10/30 06:46:04;;;;;;;3.88;2.92;;;25.60;52.60;;;;;;5088495;28;20077;-67
2023/10/30 06:48:31;;;;;;;8.27;3.10;;;25.60;52.60;;;;;;5085541;28;20081;-69
2023/10/30 06:50:57;;;;;;;4.25;2.65;;;25.60;52.70;;;;;;5087937;28;20081;-67
2023/10/30 06:53:24;;;;;;;8.32;3.53;;;25.60;52.50;;;;;;5084987;28;20028;-70
2023/10/30 06:55:50;;;;;;;6.47;3.33;;;25.60;52.40;;;;;;5086811;28;20529;-69
2023/10/30 06:58:23;;;;;;;4.45;2.85;;;25.50;52.20;;;;;;5086233;28;20466;-68
2023/10/30 07:00:49;;;;;;;5.15;2.80;;;25.50;52.20;;;;;;5084166;28;20036;-70
2023/10/30 07:03:16;;;;;;;4.45;2.67;;;25.50;51.90;;;;;;5094370;28;20064;-70
2023/10/30 07:05:42;;;;;;;8.70;3.13;;;25.50;52.10;;;;;;5093067;28;20066;-70
2023/10/30 07:08:08;;;;;;;8.95;3.42;;;25.20;51.90;;;;;;5093341;28;20036;-69
2023/10/30 07:10:35;;;;;;;8.02;3.60;;;25.40;51.40;;;;;;5093872;28;20459;-69
2023/10/30 07:13:01;;;;;;;9.52;3.40;;;25.50;51.20;;;;;;5093399;28;20040;-69
2023/10/30 07:15:27;;;;;;;15.18;3.28;;;25.40;51.10;;;;;;5091027;28;20480;-69
2023/10/30 07:17:57;;;;;;;4.22;2.63;;;25.50;51.00;;;;;;5093550;28;20441;-69
2023/10/30 07:20:23;;;;;;;6.85;3.30;;;25.40;50.90;;;;;;5092620;28;20050;-69
2023/10/30 07:22:49;;;;;;;13.60;3.60;;;25.50;50.90;;;;;;5089885;28;20452;-69
2023/10/30 07:25:16;;;;;;;6.55;3.63;;;25.50;50.90;;;;;;5093589;28;20468;-70
2023/10/30 07:27:41;;;;;;;10.10;2.50;;;25.50;51.00;;;;;;5093426;28;20064;-70
2023/10/30 07:30:08;;;;;;;10.27;3.50;;;25.50;51.00;;;;;;5092328;28;20134;-69
2023/10/30 07:32:34;;;;;;;8.73;3.47;;;25.60;51.00;;;;;;5093569;28;20040;-67
2023/10/30 07:35:00;;;;;;;5.00;2.92;;;25.60;51.10;;;;;;5092483;28;20036;-69
2023/10/30 07:37:27;;;;;;;6.47;3.58;;;25.50;51.10;;;;;;5087647;28;20031;-70
2023/10/30 07:39:53;;;;;;;7.70;3.15;;;25.50;51.10;;;;;;5092682;28;20464;-69
2023/10/30 07:42:19;;;;;;;10.85;3.63;;;25.50;51.10;;;;;;5092782;28;20530;-67
2023/10/30 07:44:45;;;;;;;7.22;3.30;;;25.50;50.90;;;;;;5090135;28;20040;-68
2023/10/30 07:47:11;;;;;;;4.97;2.92;;;25.60;50.80;;;;;;5092995;28;20039;-67
2023/10/30 07:49:37;;;;;;;8.57;3.78;;;25.50;51.50;;;;;;5091132;28;20559;-67
2023/10/30 07:52:03;;;;;;;13.70;3.85;;;25.50;53.30;;;;;;5088764;28;20042;-69
2023/10/30 07:54:29;;;;;;;7.05;3.42;;;25.50;54.90;;;;;;5084473;28;20060;-68
2023/10/30 07:56:55;;;;;;;6.60;3.05;;;25.40;54.00;;;;;;5091731;28;20370;-68
2023/10/30 07:59:21;;;;;;;3.65;1.67;;;25.60;53.30;;;;;;5092953;28;20050;-68
2023/10/30 08:01:50;;;;;;;6.85;2.75;;;25.50;52.90;;;;;;5091217;28;20367;-68
2023/10/30 08:04:16;;;;;;;7.63;2.90;;;25.50;52.70;;;;;;5092610;28;20089;-69
2023/10/30 08:06:42;;;;;;;6.35;2.40;;;25.50;52.30;;;;;;5089222;28;20035;-67
2023/10/30 08:09:12;;;;;;;4.75;2.50;;;25.60;52.20;;;;;;5091600;28;20047;-67
2023/10/30 08:11:38;;;;;;;1.92;1.30;;;25.50;52.20;;;;;;5085077;28;20040;-67
2023/10/30 08:14:04;;;;;;;2.20;1.55;;;25.60;51.90;;;;;;5088884;28;20048;-67
2023/10/30 08:16:32;;;;;;;4.75;2.38;;;25.60;51.80;;;;;;5073167;28;20036;-68
2023/10/30 08:18:58;;;;;;;1.65;1.38;;;25.60;51.90;;;;;;5092308;28;20039;-69
2023/10/30 08:21:24;;;;;;;4.53;2.00;;;25.60;51.90;;;;;;5091303;28;20028;-68
2023/10/30 08:23:50;;;;;;;5.45;2.30;;;25.60;51.80;;;;;;5092251;28;20036;-68
2023/10/30 08:26:16;;;;;;;9.55;3.53;;;25.60;51.60;;;;;;5089338;28;20043;-69
2023/10/30 08:28:44;;;;;;;7.47;3.28;;;25.60;51.60;;;;;;5094846;28;20032;-69
2023/10/30 08:31:10;;;;;;;6.55;2.30;;;25.60;51.60;;;;;;5092401;28;20122;-69
2023/10/30 08:33:36;;;;;;;14.10;3.03;;;25.60;51.60;;;;;;5082873;28;20453;-68
2023/10/30 08:36:03;;;;;;;5.60;2.63;;;25.60;51.40;;;;;;5074147;28;20032;-69
2023/10/30 08:38:29;;;;;;;3.78;1.63;;;25.60;51.50;;;;;;5082612;28;20040;-68
2023/10/30 08:40:54;;;;;;;2.97;1.50;;;25.50;51.50;;;;;;5090566;28;20044;-69
2023/10/30 08:43:21;;;;;;;1.50;1.40;;;25.50;51.50;;;;;;5092228;28;20036;-69
2023/10/30 08:45:47;;;;;;;2.88;1.30;;;25.60;51.50;;;;;;5090031;28;20024;-69
2023/10/30 08:48:13;;;;;;;1.83;1.70;;;25.60;51.60;;;;;;5089783;28;20066;-68
2023/10/30 08:50:40;;;;;;;5.95;2.38;;;25.50;51.50;;;;;;5090334;28;20455;-68
2023/10/30 08:53:07;;;;;;;2.22;1.20;;;25.60;51.50;;;;;;5092037;28;20032;-68
2023/10/30 08:55:33;;;;;;;2.92;1.25;;;25.60;51.40;;;;;;5091356;28;20040;-70
2023/10/30 08:57:59;;;;;;;1.92;1.58;;;25.60;51.40;;;;;;5088336;28;20105;-69
2023/10/30 09:00:25;;;;;;;4.13;1.38;;;25.70;51.40;;;;;;5091286;28;20396;-69
2023/10/30 09:02:52;;;;;;;4.20;1.92;;;25.70;51.50;;;;;;5089530;28;20097;-67
2023/10/30 09:05:18;;;;;;;1.95;1.15;;;25.60;51.60;;;;;;5078972;28;20106;-67
2023/10/30 09:07:46;;;;;;;3.20;1.23;;;25.60;51.60;;;;;;5084989;28;20032;-66
2023/10/30 09:10:12;;;;;;;4.03;1.88;;;25.60;51.60;;;;;;5105325;28;20392;-67
2023/10/30 09:12:38;;;;;;;1.83;1.10;;;25.60;51.60;;;;;;5091530;28;20472;-68
2023/10/30 09:15:05;;;;;;;2.63;1.52;;;25.60;51.40;;;;;;5090830;28;20059;-69
2023/10/30 09:17:31;;;;;;;4.07;1.35;;;25.60;51.40;;;;;;5091058;28;20570;-68
2023/10/30 09:19:57;;;;;;;3.92;1.45;;;25.70;51.30;;;;;;5091418;28;20131;-68
2023/10/30 09:22:23;;;;;;;5.40;1.40;;;25.70;51.20;;;;;;5079200;28;20036;-69
2023/10/30 09:24:49;;;;;;;5.55;2.05;;;25.60;51.20;;;;;;5080666;28;20085;-69
2023/10/30 09:27:15;;;;;;;4.65;1.48;;;25.80;51.30;;;;;;5088887;28;20036;-69
2023/10/30 09:29:41;;;;;;;2.42;1.20;;;25.80;51.30;;;;;;5091036;28;20028;-69
2023/10/30 09:32:07;;;;;;;2.53;1.70;;;25.70;51.20;;;;;;5088776;28;20896;-70
2023/10/30 09:34:34;;;;;;;2.60;1.70;;;25.70;51.20;;;;;;5091143;28;20040;-68
2023/10/30 09:37:01;;;;;;;3.42;1.75;;;25.70;51.20;;;;;;5078957;28;20040;-68
2023/10/30 09:39:27;;;;;;;5.50;2.63;;;25.60;51.20;;;;;;5077055;28;20048;-68
2023/10/30 09:41:54;;;;;;;1.20;1.10;;;25.60;51.20;;;;;;5090805;28;20065;-68
2023/10/30 09:44:21;;;;;;;2.05;1.35;;;25.60;51.20;;;;;;5090688;28;20089;-67
2023/10/30 09:46:48;;;;;;;1.42;1.33;;;25.50;51.20;;;;;;5090723;28;20043;-69
2023/10/30 09:49:14;;;;;;;1.60;1.15;;;25.30;51.20;;;;;;5090960;28;20061;-67
2023/10/30 09:51:43;;;;;;;4.20;1.30;;;25.60;51.20;;;;;;5081031;28;20040;-69
2023/10/30 09:54:11;;;;;;;3.63;1.58;;;25.50;51.20;;;;;;5081790;28;20040;-67
2023/10/30 09:56:38;;;;;;;3.80;1.23;;;25.40;51.20;;;;;;5082996;28;20032;-69
2023/10/30 09:59:05;;;;;;;1.92;1.65;;;25.50;51.20;;;;;;5074747;28;20062;-68
2023/10/30 10:01:31;;;;;;;3.03;1.77;;;25.30;51.20;;;;;;5092707;28;20056;-69
2023/10/30 10:03:57;;;;;;;4.45;1.83;;;25.40;51.10;;;;;;5095139;28;20040;-68
2023/10/30 10:06:23;;;;;;;2.85;1.50;;;25.50;51.00;;;;;;5088998;28;20040;-68
2023/10/30 10:08:50;;;;;;;3.45;2.10;;;25.40;51.00;;;;;;5089128;28;20135;-69
2023/10/30 10:11:22;;;;;;;3.95;2.03;;;25.40;50.90;;;;;;5074319;28;20024;-69
2023/10/30 10:13:49;;;;;;;3.60;1.63;;;25.50;50.80;;;;;;5092845;28;20135;-69
2023/10/30 10:16:15;;;;;;;2.95;2.30;;;25.40;50.80;;;;;;5094704;28;20085;-67
2023/10/30 10:18:42;;;;;;;3.03;1.85;;;25.50;50.70;;;;;;5109245;28;20063;-68
2023/10/30 10:21:09;;;;;;;5.70;1.73;;;25.50;50.70;;;;;;5092946;28;20050;-69
2023/10/30 10:23:36;;;;;;;4.85;2.28;;;25.60;50.70;;;;;;5088645;28;20098;-68
2023/10/30 10:26:04;;;;;;;2.95;1.92;;;25.50;50.70;;;;;;5086141;28;20479;-68
2023/10/30 10:28:32;;;;;;;4.60;1.83;;;25.40;50.70;;;;;;5094565;28;20164;-70
2023/10/30 10:30:58;;;;;;;2.10;1.90;;;25.40;50.70;;;;;;5093667;28;20075;-68
2023/10/30 10:33:30;;;;;;;4.47;2.45;;;25.40;50.60;;;;;;5074961;28;20480;-69
2023/10/30 10:36:00;;;;;;;2.75;1.05;;;25.40;50.60;;;;;;5077018;28;20532;-68
2023/10/30 10:38:27;;;;;;;6.65;2.50;;;25.40;50.60;;;;;;5093173;28;20044;-68
2023/10/30 10:40:57;;;;;;;2.80;2.10;;;25.40;50.50;;;;;;5091951;28;20422;-68
2023/10/30 10:43:26;;;;;;;3.72;2.17;;;25.30;50.40;;;;;;5094164;28;20032;-70
2023/10/30 10:45:53;;;;;;;3.33;1.88;;;25.30;50.40;;;;;;5094517;28;20032;-68
2023/10/30 10:48:21;;;;;;;3.60;1.55;;;25.40;50.30;;;;;;5094306;28;20044;-69
2023/10/30 10:50:48;;;;;;;2.92;1.95;;;25.30;50.40;;;;;;5094343;28;20043;-69
2023/10/30 10:53:17;;;;;;;3.78;1.83;;;25.20;50.50;;;;;;5090737;28;20089;-69
2023/10/30 10:55:49;;;;;;;2.80;1.58;;;25.30;50.60;;;;;;5094013;28;20502;-68
2023/10/30 10:58:37;;;;;;;2.97;1.80;;;25.40;50.60;;;;;;5093905;28;20039;-69
2023/10/30 11:01:05;;;;;;;2.08;1.70;;;25.20;50.50;;;;;;5091755;28;20135;-69
2023/10/30 11:03:31;;;;;;;4.68;1.80;;;25.30;50.30;;;;;;5093935;28;20078;-69
2023/10/30 11:05:58;;;;;;;4.65;2.00;;;25.30;50.20;;;;;;5094052;28;20060;-69
2023/10/30 11:08:36;;;;;;;4.15;2.15;;;25.30;50.20;;;;;;5091980;28;20104;-69
2023/10/30 11:11:15;;;;;;;5.47;2.15;;;25.30;50.20;;;;;;5090797;28;20048;-69
2023/10/30 11:14:09;;;;;;;5.53;2.38;;;25.30;50.20;;;;;;5094000;28;20040;-69
2023/10/30 11:16:48;;;;;;;3.20;1.75;;;25.30;50.10;;;;;;5093730;28;20040;-69
2023/10/30 11:19:19;;;;;;;3.08;2.00;;;25.30;50.10;;;;;;5093337;28;20155;-69
2023/10/30 11:21:48;;;;;;;2.95;1.98;;;25.40;50.00;;;;;;5073878;28;20071;-69
2023/10/30 11:24:36;;;;;;;3.03;1.83;;;25.40;50.00;;;;;;5070820;28;20052;-70
2023/10/30 11:27:25;;;;;;;3.08;2.13;;;25.40;50.00;;;;;;5073512;28;20467;-67
2023/10/30 11:30:03;;;;;;;2.97;1.88;;;25.20;49.90;;;;;;5091352;28;20088;-69
2023/10/30 11:32:32;;;;;;;2.63;2.00;;;25.30;49.90;;;;;;5090589;28;20668;-68
2023/10/30 11:34:59;;;;;;;2.47;1.70;;;25.30;49.90;;;;;;5090663;28;20044;-69
2023/10/30 11:37:29;;;;;;;5.47;1.88;;;25.20;49.90;;;;;;5080987;28;20043;-68
2023/10/30 11:39:56;;;;;;;2.30;1.90;;;25.30;49.90;;;;;;5075154;28;20036;-68
2023/10/30 11:42:22;;;;;;;6.47;2.40;;;25.30;52.10;;;;;;5088390;28;20059;-70
2023/10/30 11:44:52;;;;;;;10.70;3.40;;;25.40;49.90;;;;;;5087400;28;20118;-69
2023/10/30 11:47:19;;;;;;;17.13;3.92;;;25.40;49.50;;;;;;5086218;28;20024;-68
2023/10/30 11:49:46;;;;;;;6.70;2.70;;;25.50;50.60;;;;;;5090325;28;20101;-69
2023/10/30 11:52:13;;;;;;;7.57;2.97;;;25.60;49.80;;;;;;5077165;28;20064;-67
2023/10/30 11:54:48;;;;;;;5.35;2.42;;;25.60;51.50;;;;;;5088503;28;20112;-68
2023/10/30 11:57:15;;;;;;;8.90;2.75;;;25.60;53.90;;;;;;5079558;28;20522;-68
2023/10/30 11:59:41;;;;;;;6.15;2.45;;;25.80;52.50;;;;;;5069845;28;20042;-68
2023/10/30 12:02:07;;;;;;;6.43;2.38;;;25.80;52.30;;;;;;5070995;28;20439;-69
2023/10/30 12:04:33;;;;;;;17.77;4.22;;;25.90;51.70;;;;;;5067854;28;20036;-67
2023/10/30 12:07:00;;;;;;;5.65;2.72;;;25.90;53.40;;;;;;5071884;28;20071;-68
2023/10/30 12:09:26;;;;;;;6.13;2.40;;;26.00;52.60;;;;;;5070289;28;20107;-70
2023/10/30 12:11:55;;;;;;;6.28;2.80;;;26.30;55.30;;;;;;5081528;28;20046;-68
2023/10/30 12:14:21;;;;;;;4.05;2.60;;;26.20;53.60;;;;;;5082520;28;20401;-69
2023/10/30 12:16:51;;;;;;;5.10;3.03;;;26.30;51.60;;;;;;5084206;28;20505;-69
2023/10/30 12:19:21;;;;;;;5.65;2.45;;;26.40;53.60;;;;;;5072023;28;20614;-67
2023/10/30 12:21:51;;;;;;;5.15;2.72;;;26.50;53.80;;;;;;5072824;28;20032;-67
2023/10/30 12:24:18;;;;;;;6.43;3.15;;;26.50;54.10;;;;;;5092175;28;20125;-68
2023/10/30 12:26:46;;;;;;;5.03;2.58;;;26.60;55.30;;;;;;5077265;28;20372;-68
2023/10/30 12:29:22;;;;;;;8.48;4.45;;;26.60;56.90;;;;;;5070721;28;20407;-69
2023/10/30 12:32:11;;;;;;;5.22;2.78;;;26.90;57.30;;;;;;5083812;28;20036;-68
2023/10/30 12:34:38;;;;;;;5.22;3.10;;;26.80;54.30;;;;;;5089372;28;20093;-66
2023/10/30 12:37:17;;;;;;;7.38;2.67;;;26.80;57.70;;;;;;5087153;28;20537;-68
2023/10/30 12:40:21;;;;;;;4.78;2.03;;;27.00;56.80;;;;;;5090791;28;20126;-66
2023/10/30 12:42:48;;;;;;;6.47;2.85;;;26.90;51.00;;;;;;5040602;28;20025;-68
2023/10/30 12:45:19;;;;;;;4.28;2.28;;;26.90;50.30;;;;;;5045661;28;20150;-68
2023/10/30 12:47:47;;;;;;;7.38;2.70;;;27.00;51.10;;;;;;5015051;28;20037;-68